sensor_id;sensor_type;location;lat;lon;timestamp;P1;durP1;ratioP1;P2;durP2;ratioP2
1679;SDS011;838;51.794;12.258;2023-02-28T00:00:45;4.90;;;3.37;;
1679;SDS011;838;51.794;12.258;2023-02-28T00:03:11;5.60;;;3.40;;
1679;SDS011;838;51.794;12.258;2023-02-28T00:05:37;4.90;;;3.23;;
1679;SDS011;838;51.794;12.258;2023-02-28T00:08:03;4.53;;;2.93;;
1679;SDS011;838;51.794;12.258;2023-02-28T00:10:29;6.30;;;3.37;;
1679;SDS011;838;51.794;12.258;2023-02-28T00:12:58;6.80;;;3.57;;
1679;SDS011;838;51.794;12.258;2023-02-28T00:15:26;4.03;;;2.73;;
1679;SDS011;838;51.794;12.258;2023-02-28T00:17:51;4.57;;;3.10;;
1679;SDS011;838;51.794;12.258;2023-02-28T00:20:17;4.50;;;3.20;;
1679;SDS011;838;51.794;12.258;2023-02-28T00:22:44;6.70;;;3.30;;
1679;SDS011;838;51.794;12.258;2023-02-28T00:25:14;5.70;;;3.33;;
1679;SDS011;838;51.794;12.258;2023-02-28T00:27:41;6.10;;;3.20;;
1679;SDS011;838;51.794;12.258;2023-02-28T00:30:08;6.30;;;3.30;;
1679;SDS011;838;51.794;12.258;2023-02-28T00:32:39;5.00;;;3.00;;
1679;SDS011;838;51.794;12.258;2023-02-28T00:35:05;5.27;;;3.73;;
1679;SDS011;838;51.794;12.258;2023-02-28T00:37:31;5.00;;;2.93;;
1679;SDS011;838;51.794;12.258;2023-02-28T00:39:57;5.23;;;3.70;;
1679;SDS011;838;51.794;12.258;2023-02-28T00:42:23;5.40;;;3.40;;
1679;SDS011;838;51.794;12.258;2023-02-28T00:44:49;5.13;;;3.67;;
1679;SDS011;838;51.794;12.258;2023-02-28T00:47:15;3.90;;;3.00;;
1679;SDS011;838;51.794;12.258;2023-02-28T00:49:41;6.30;;;3.07;;
1679;SDS011;838;51.794;12.258;2023-02-28T00:52:07;4.77;;;3.43;;
1679;SDS011;838;51.794;12.258;2023-02-28T00:54:32;5.20;;;3.27;;
1679;SDS011;838;51.794;12.258;2023-02-28T00:56:58;5.50;;;3.23;;
1679;SDS011;838;51.794;12.258;2023-02-28T00:59:24;4.73;;;2.80;;
1679;SDS011;838;51.794;12.258;2023-02-28T01:01:50;4.50;;;3.13;;
1679;SDS011;838;51.794;12.258;2023-02-28T01:04:16;4.93;;;3.40;;
1679;SDS011;838;51.794;12.258;2023-02-28T01:06:42;4.60;;;3.03;;
1679;SDS011;838;51.794;12.258;2023-02-28T01:09:08;4.50;;;3.30;;
1679;SDS011;838;51.794;12.258;2023-02-28T01:11:34;8.03;;;4.50;;
1679;SDS011;838;51.794;12.258;2023-02-28T01:14:00;4.10;;;2.93;;
1679;SDS011;838;51.794;12.258;2023-02-28T01:16:26;4.90;;;3.10;;
1679;SDS011;838;51.794;12.258;2023-02-28T01:18:52;5.00;;;2.90;;
1679;SDS011;838;51.794;12.258;2023-02-28T01:21:19;5.33;;;2.83;;
1679;SDS011;838;51.794;12.258;2023-02-28T01:23:45;5.73;;;3.43;;
1679;SDS011;838;51.794;12.258;2023-02-28T01:26:13;4.90;;;3.40;;
1679;SDS011;838;51.794;12.258;2023-02-28T01:28:41;6.60;;;4.00;;
1679;SDS011;838;51.794;12.258;2023-02-28T01:31:07;7.23;;;3.63;;
1679;SDS011;838;51.794;12.258;2023-02-28T01:33:34;11.73;;;4.90;;
1679;SDS011;838;51.794;12.258;2023-02-28T01:36:01;5.33;;;3.77;;
1679;SDS011;838;51.794;12.258;2023-02-28T01:38:28;6.10;;;3.37;;
1679;SDS011;838;51.794;12.258;2023-02-28T01:40:54;4.43;;;3.20;;
1679;SDS011;838;51.794;12.258;2023-02-28T01:43:27;5.37;;;3.43;;
1679;SDS011;838;51.794;12.258;2023-02-28T01:46:16;5.53;;;3.07;;
1679;SDS011;838;51.794;12.258;2023-02-28T01:48:43;4.97;;;2.90;;
1679;SDS011;838;51.794;12.258;2023-02-28T01:51:26;4.83;;;2.90;;
1679;SDS011;838;51.794;12.258;2023-02-28T01:54:01;4.53;;;2.93;;
1679;SDS011;838;51.794;12.258;2023-02-28T01:56:31;4.07;;;3.10;;
1679;SDS011;838;51.794;12.258;2023-02-28T01:59:00;6.53;;;3.73;;
1679;SDS011;838;51.794;12.258;2023-02-28T02:01:26;8.20;;;4.23;;
1679;SDS011;838;51.794;12.258;2023-02-28T02:03:54;6.53;;;3.60;;
1679;SDS011;838;51.794;12.258;2023-02-28T02:06:26;5.50;;;3.70;;
1679;SDS011;838;51.794;12.258;2023-02-28T02:08:55;5.83;;;4.30;;
1679;SDS011;838;51.794;12.258;2023-02-28T02:11:22;7.37;;;3.33;;
1679;SDS011;838;51.794;12.258;2023-02-28T02:14:03;5.17;;;2.80;;
1679;SDS011;838;51.794;12.258;2023-02-28T02:25:14;4.87;;;2.70;;
1679;SDS011;838;51.794;12.258;2023-02-28T02:36:18;4.50;;;3.13;;
1679;SDS011;838;51.794;12.258;2023-02-28T02:38:54;4.40;;;3.50;;
1679;SDS011;838;51.794;12.258;2023-02-28T02:41:30;4.93;;;3.33;;
1679;SDS011;838;51.794;12.258;2023-02-28T02:44:11;4.47;;;3.10;;
1679;SDS011;838;51.794;12.258;2023-02-28T02:46:53;4.87;;;2.87;;
1679;SDS011;838;51.794;12.258;2023-02-28T02:49:27;5.43;;;2.97;;
1679;SDS011;838;51.794;12.258;2023-02-28T02:51:57;5.90;;;3.40;;
1679;SDS011;838;51.794;12.258;2023-02-28T02:54:28;4.50;;;2.97;;
1679;SDS011;838;51.794;12.258;2023-02-28T02:56:58;4.60;;;2.93;;
1679;SDS011;838;51.794;12.258;2023-02-28T02:59:27;4.27;;;3.30;;
1679;SDS011;838;51.794;12.258;2023-02-28T03:01:55;6.37;;;3.17;;
1679;SDS011;838;51.794;12.258;2023-02-28T03:04:23;4.33;;;3.07;;
1679;SDS011;838;51.794;12.258;2023-02-28T03:06:52;4.63;;;3.00;;
1679;SDS011;838;51.794;12.258;2023-02-28T03:09:22;4.60;;;2.97;;
1679;SDS011;838;51.794;12.258;2023-02-28T03:11:48;6.37;;;3.20;;
1679;SDS011;838;51.794;12.258;2023-02-28T03:19:51;3.70;;;2.70;;
1679;SDS011;838;51.794;12.258;2023-02-28T03:36:50;3.93;;;2.60;;
1679;SDS011;838;51.794;12.258;2023-02-28T03:39:19;4.50;;;2.60;;
1679;SDS011;838;51.794;12.258;2023-02-28T03:44:33;5.10;;;3.77;;
1679;SDS011;838;51.794;12.258;2023-02-28T03:47:14;5.37;;;3.17;;
1679;SDS011;838;51.794;12.258;2023-02-28T03:49:45;4.47;;;2.90;;
1679;SDS011;838;51.794;12.258;2023-02-28T03:52:16;6.60;;;2.87;;
1679;SDS011;838;51.794;12.258;2023-02-28T03:54:44;5.17;;;3.20;;
1679;SDS011;838;51.794;12.258;2023-02-28T04:00:09;4.17;;;2.87;;
1679;SDS011;838;51.794;12.258;2023-02-28T04:02:39;4.17;;;2.83;;
1679;SDS011;838;51.794;12.258;2023-02-28T04:05:06;4.53;;;3.23;;
1679;SDS011;838;51.794;12.258;2023-02-28T04:07:32;4.30;;;3.10;;
1679;SDS011;838;51.794;12.258;2023-02-28T04:09:58;4.00;;;2.97;;
1679;SDS011;838;51.794;12.258;2023-02-28T04:12:24;5.83;;;3.23;;
1679;SDS011;838;51.794;12.258;2023-02-28T04:14:50;5.20;;;2.90;;
1679;SDS011;838;51.794;12.258;2023-02-28T04:17:16;4.20;;;3.40;;
1679;SDS011;838;51.794;12.258;2023-02-28T04:19:42;4.90;;;2.90;;
1679;SDS011;838;51.794;12.258;2023-02-28T04:22:08;4.30;;;3.00;;
1679;SDS011;838;51.794;12.258;2023-02-28T04:24:35;5.03;;;2.80;;
1679;SDS011;838;51.794;12.258;2023-02-28T04:27:00;4.13;;;3.13;;
1679;SDS011;838;51.794;12.258;2023-02-28T04:29:27;3.67;;;2.97;;
1679;SDS011;838;51.794;12.258;2023-02-28T04:31:57;5.73;;;3.73;;
1679;SDS011;838;51.794;12.258;2023-02-28T04:34:28;5.07;;;3.23;;
1679;SDS011;838;51.794;12.258;2023-02-28T04:36:55;4.87;;;3.13;;
1679;SDS011;838;51.794;12.258;2023-02-28T04:39:21;3.50;;;2.63;;
1679;SDS011;838;51.794;12.258;2023-02-28T04:41:48;4.20;;;2.87;;
1679;SDS011;838;51.794;12.258;2023-02-28T04:44:14;4.03;;;2.80;;
1679;SDS011;838;51.794;12.258;2023-02-28T04:46:41;5.87;;;3.40;;
1679;SDS011;838;51.794;12.258;2023-02-28T04:49:08;4.10;;;3.20;;
1679;SDS011;838;51.794;12.258;2023-02-28T04:51:35;4.30;;;3.00;;
1679;SDS011;838;51.794;12.258;2023-02-28T04:54:01;4.60;;;3.63;;
1679;SDS011;838;51.794;12.258;2023-02-28T04:56:27;5.30;;;3.20;;
1679;SDS011;838;51.794;12.258;2023-02-28T04:58:52;4.33;;;2.97;;
1679;SDS011;838;51.794;12.258;2023-02-28T05:03:53;3.80;;;2.73;;
1679;SDS011;838;51.794;12.258;2023-02-28T05:06:20;4.50;;;2.93;;
1679;SDS011;838;51.794;12.258;2023-02-28T05:08:47;4.13;;;2.87;;
1679;SDS011;838;51.794;12.258;2023-02-28T05:11:23;5.33;;;2.73;;
1679;SDS011;838;51.794;12.258;2023-02-28T05:13:50;4.77;;;2.63;;
1679;SDS011;838;51.794;12.258;2023-02-28T05:16:16;6.70;;;3.30;;
1679;SDS011;838;51.794;12.258;2023-02-28T05:18:43;3.90;;;2.97;;
1679;SDS011;838;51.794;12.258;2023-02-28T05:23:59;8.10;;;4.30;;
1679;SDS011;838;51.794;12.258;2023-02-28T05:26:36;4.60;;;3.10;;
1679;SDS011;838;51.794;12.258;2023-02-28T05:29:05;4.60;;;3.17;;
1679;SDS011;838;51.794;12.258;2023-02-28T05:31:30;5.23;;;3.20;;
1679;SDS011;838;51.794;12.258;2023-02-28T05:33:57;5.90;;;3.80;;
1679;SDS011;838;51.794;12.258;2023-02-28T05:36:22;4.47;;;3.27;;
1679;SDS011;838;51.794;12.258;2023-02-28T05:38:48;5.80;;;3.10;;
1679;SDS011;838;51.794;12.258;2023-02-28T05:41:15;5.97;;;3.20;;
1679;SDS011;838;51.794;12.258;2023-02-28T05:43:42;6.70;;;3.30;;
1679;SDS011;838;51.794;12.258;2023-02-28T05:46:08;5.63;;;3.10;;
1679;SDS011;838;51.794;12.258;2023-02-28T05:48:36;5.40;;;4.20;;
1679;SDS011;838;51.794;12.258;2023-02-28T05:51:03;7.23;;;3.73;;
1679;SDS011;838;51.794;12.258;2023-02-28T05:53:30;4.67;;;3.20;;
1679;SDS011;838;51.794;12.258;2023-02-28T05:55:56;6.00;;;3.53;;
1679;SDS011;838;51.794;12.258;2023-02-28T05:58:22;4.40;;;3.47;;
1679;SDS011;838;51.794;12.258;2023-02-28T06:00:50;6.60;;;3.37;;
1679;SDS011;838;51.794;12.258;2023-02-28T06:03:16;3.87;;;3.07;;
1679;SDS011;838;51.794;12.258;2023-02-28T06:05:42;5.00;;;3.27;;
1679;SDS011;838;51.794;12.258;2023-02-28T06:08:07;4.23;;;2.80;;
1679;SDS011;838;51.794;12.258;2023-02-28T06:10:36;4.43;;;3.07;;
1679;SDS011;838;51.794;12.258;2023-02-28T06:13:02;3.50;;;3.20;;
1679;SDS011;838;51.794;12.258;2023-02-28T06:15:29;8.20;;;4.20;;
1679;SDS011;838;51.794;12.258;2023-02-28T06:17:55;4.77;;;3.10;;
1679;SDS011;838;51.794;12.258;2023-02-28T06:20:22;4.83;;;3.53;;
1679;SDS011;838;51.794;12.258;2023-02-28T06:22:49;5.07;;;3.63;;
1679;SDS011;838;51.794;12.258;2023-02-28T06:25:16;4.63;;;3.13;;
1679;SDS011;838;51.794;12.258;2023-02-28T06:27:42;4.50;;;3.20;;
1679;SDS011;838;51.794;12.258;2023-02-28T06:30:08;4.00;;;3.20;;
1679;SDS011;838;51.794;12.258;2023-02-28T06:32:35;6.67;;;4.40;;
1679;SDS011;838;51.794;12.258;2023-02-28T06:35:01;8.03;;;5.37;;
1679;SDS011;838;51.794;12.258;2023-02-28T06:37:27;14.43;;;8.27;;
1679;SDS011;838;51.794;12.258;2023-02-28T06:39:54;14.80;;;8.77;;
1679;SDS011;838;51.794;12.258;2023-02-28T06:42:23;15.03;;;9.33;;
1679;SDS011;838;51.794;12.258;2023-02-28T06:44:57;17.40;;;8.60;;
1679;SDS011;838;51.794;12.258;2023-02-28T06:47:24;9.33;;;5.97;;
1679;SDS011;838;51.794;12.258;2023-02-28T06:49:50;5.90;;;4.10;;
1679;SDS011;838;51.794;12.258;2023-02-28T06:52:16;5.90;;;3.73;;
1679;SDS011;838;51.794;12.258;2023-02-28T06:54:41;7.13;;;3.90;;
1679;SDS011;838;51.794;12.258;2023-02-28T06:57:07;7.43;;;4.73;;
1679;SDS011;838;51.794;12.258;2023-02-28T06:59:33;7.27;;;5.00;;
1679;SDS011;838;51.794;12.258;2023-02-28T07:02:00;8.20;;;5.20;;
1679;SDS011;838;51.794;12.258;2023-02-28T07:04:27;9.70;;;5.47;;
1679;SDS011;838;51.794;12.258;2023-02-28T07:06:53;8.03;;;4.93;;
1679;SDS011;838;51.794;12.258;2023-02-28T07:09:21;13.10;;;7.37;;
1679;SDS011;838;51.794;12.258;2023-02-28T07:11:46;11.10;;;7.43;;
1679;SDS011;838;51.794;12.258;2023-02-28T07:14:12;12.87;;;7.03;;
1679;SDS011;838;51.794;12.258;2023-02-28T07:16:38;9.93;;;6.57;;
1679;SDS011;838;51.794;12.258;2023-02-28T07:19:03;9.07;;;6.70;;
1679;SDS011;838;51.794;12.258;2023-02-28T07:21:29;11.27;;;6.60;;
1679;SDS011;838;51.794;12.258;2023-02-28T07:23:55;10.10;;;6.40;;
1679;SDS011;838;51.794;12.258;2023-02-28T07:26:21;12.07;;;6.03;;
1679;SDS011;838;51.794;12.258;2023-02-28T07:28:47;8.90;;;5.47;;
1679;SDS011;838;51.794;12.258;2023-02-28T07:31:14;7.07;;;3.80;;
1679;SDS011;838;51.794;12.258;2023-02-28T07:33:40;4.80;;;3.20;;
1679;SDS011;838;51.794;12.258;2023-02-28T07:36:08;6.33;;;3.23;;
1679;SDS011;838;51.794;12.258;2023-02-28T07:38:44;5.30;;;3.60;;
1679;SDS011;838;51.794;12.258;2023-02-28T07:41:16;5.10;;;2.80;;
1679;SDS011;838;51.794;12.258;2023-02-28T07:43:43;4.87;;;3.00;;
1679;SDS011;838;51.794;12.258;2023-02-28T07:46:10;5.67;;;2.73;;
1679;SDS011;838;51.794;12.258;2023-02-28T07:48:39;4.00;;;2.60;;
1679;SDS011;838;51.794;12.258;2023-02-28T07:51:05;4.80;;;3.10;;
1679;SDS011;838;51.794;12.258;2023-02-28T07:53:31;5.40;;;3.33;;
1679;SDS011;838;51.794;12.258;2023-02-28T07:55:58;5.30;;;3.00;;
1679;SDS011;838;51.794;12.258;2023-02-28T07:58:26;3.60;;;2.80;;
1679;SDS011;838;51.794;12.258;2023-02-28T08:00:52;8.13;;;3.47;;
1679;SDS011;838;51.794;12.258;2023-02-28T08:03:19;5.90;;;3.27;;
1679;SDS011;838;51.794;12.258;2023-02-28T08:05:47;5.40;;;4.10;;
1679;SDS011;838;51.794;12.258;2023-02-28T08:08:14;4.77;;;3.10;;
1679;SDS011;838;51.794;12.258;2023-02-28T08:10:40;4.73;;;2.90;;
1679;SDS011;838;51.794;12.258;2023-02-28T08:13:06;5.90;;;3.20;;
1679;SDS011;838;51.794;12.258;2023-02-28T08:15:32;4.53;;;3.10;;
1679;SDS011;838;51.794;12.258;2023-02-28T08:17:58;5.30;;;3.30;;
1679;SDS011;838;51.794;12.258;2023-02-28T08:20:24;4.60;;;3.50;;
1679;SDS011;838;51.794;12.258;2023-02-28T08:22:51;4.30;;;3.47;;
1679;SDS011;838;51.794;12.258;2023-02-28T08:25:16;6.20;;;3.40;;
1679;SDS011;838;51.794;12.258;2023-02-28T08:27:42;4.77;;;3.33;;
1679;SDS011;838;51.794;12.258;2023-02-28T08:30:10;6.70;;;4.40;;
1679;SDS011;838;51.794;12.258;2023-02-28T08:32:36;4.97;;;3.77;;
1679;SDS011;838;51.794;12.258;2023-02-28T08:35:02;5.00;;;3.60;;
1679;SDS011;838;51.794;12.258;2023-02-28T08:37:28;6.33;;;4.00;;
1679;SDS011;838;51.794;12.258;2023-02-28T08:39:54;4.90;;;3.80;;
1679;SDS011;838;51.794;12.258;2023-02-28T08:42:20;7.00;;;4.00;;
1679;SDS011;838;51.794;12.258;2023-02-28T08:44:45;5.13;;;3.67;;
1679;SDS011;838;51.794;12.258;2023-02-28T08:47:11;4.53;;;3.30;;
1679;SDS011;838;51.794;12.258;2023-02-28T08:49:37;5.47;;;3.50;;
1679;SDS011;838;51.794;12.258;2023-02-28T08:52:03;4.80;;;3.20;;
1679;SDS011;838;51.794;12.258;2023-02-28T08:54:29;5.00;;;3.80;;
1679;SDS011;838;51.794;12.258;2023-02-28T08:56:56;4.43;;;2.90;;
1679;SDS011;838;51.794;12.258;2023-02-28T08:59:28;4.40;;;3.70;;
1679;SDS011;838;51.794;12.258;2023-02-28T09:01:54;4.73;;;3.30;;
1679;SDS011;838;51.794;12.258;2023-02-28T09:04:20;4.67;;;3.23;;
1679;SDS011;838;51.794;12.258;2023-02-28T09:06:46;6.47;;;3.00;;
1679;SDS011;838;51.794;12.258;2023-02-28T09:09:13;5.90;;;2.70;;
1679;SDS011;838;51.794;12.258;2023-02-28T09:11:39;5.50;;;3.37;;
1679;SDS011;838;51.794;12.258;2023-02-28T09:14:05;3.93;;;2.73;;
1679;SDS011;838;51.794;12.258;2023-02-28T09:16:31;4.40;;;2.97;;
1679;SDS011;838;51.794;12.258;2023-02-28T09:18:58;3.87;;;2.97;;
1679;SDS011;838;51.794;12.258;2023-02-28T09:21:24;4.20;;;2.90;;
1679;SDS011;838;51.794;12.258;2023-02-28T09:23:51;5.43;;;3.87;;
1679;SDS011;838;51.794;12.258;2023-02-28T09:26:18;6.77;;;3.33;;
1679;SDS011;838;51.794;12.258;2023-02-28T09:28:44;4.97;;;3.60;;
1679;SDS011;838;51.794;12.258;2023-02-28T09:31:11;6.77;;;3.30;;
1679;SDS011;838;51.794;12.258;2023-02-28T09:33:38;6.90;;;3.90;;
1679;SDS011;838;51.794;12.258;2023-02-28T09:36:05;5.43;;;3.17;;
1679;SDS011;838;51.794;12.258;2023-02-28T09:38:31;5.13;;;3.30;;
1679;SDS011;838;51.794;12.258;2023-02-28T09:40:58;4.40;;;3.00;;
1679;SDS011;838;51.794;12.258;2023-02-28T09:43:27;5.23;;;3.40;;
1679;SDS011;838;51.794;12.258;2023-02-28T09:45:59;6.17;;;4.20;;
1679;SDS011;838;51.794;12.258;2023-02-28T09:48:33;4.90;;;3.57;;
1679;SDS011;838;51.794;12.258;2023-02-28T09:51:03;4.83;;;3.60;;
1679;SDS011;838;51.794;12.258;2023-02-28T09:53:36;5.80;;;3.90;;
1679;SDS011;838;51.794;12.258;2023-02-28T09:56:09;5.43;;;3.80;;
1679;SDS011;838;51.794;12.258;2023-02-28T10:04:17;6.10;;;3.50;;
1679;SDS011;838;51.794;12.258;2023-02-28T10:06:50;5.00;;;3.13;;
1679;SDS011;838;51.794;12.258;2023-02-28T10:09:17;4.53;;;2.80;;
1679;SDS011;838;51.794;12.258;2023-02-28T10:11:45;5.37;;;3.60;;
1679;SDS011;838;51.794;12.258;2023-02-28T10:14:16;4.87;;;3.13;;
1679;SDS011;838;51.794;12.258;2023-02-28T10:21:54;4.30;;;2.70;;
1679;SDS011;838;51.794;12.258;2023-02-28T10:27:01;3.67;;;3.00;;
1679;SDS011;838;51.794;12.258;2023-02-28T10:29:54;4.47;;;3.23;;
1679;SDS011;838;51.794;12.258;2023-02-28T10:32:46;3.77;;;3.00;;
1679;SDS011;838;51.794;12.258;2023-02-28T10:35:20;6.00;;;2.80;;
1679;SDS011;838;51.794;12.258;2023-02-28T10:37:53;4.63;;;3.00;;
1679;SDS011;838;51.794;12.258;2023-02-28T10:43:02;5.93;;;3.10;;
1679;SDS011;838;51.794;12.258;2023-02-28T10:45:38;5.00;;;3.20;;
1679;SDS011;838;51.794;12.258;2023-02-28T10:58:30;4.10;;;3.20;;
1679;SDS011;838;51.794;12.258;2023-02-28T11:03:45;5.77;;;3.60;;
1679;SDS011;838;51.794;12.258;2023-02-28T11:06:33;6.00;;;3.83;;
1679;SDS011;838;51.794;12.258;2023-02-28T11:09:01;6.50;;;3.77;;
1679;SDS011;838;51.794;12.258;2023-02-28T11:11:40;8.10;;;4.07;;
1679;SDS011;838;51.794;12.258;2023-02-28T11:16:52;4.73;;;3.23;;
1679;SDS011;838;51.794;12.258;2023-02-28T11:19:23;5.50;;;3.60;;
1679;SDS011;838;51.794;12.258;2023-02-28T11:21:53;4.63;;;3.57;;
1679;SDS011;838;51.794;12.258;2023-02-28T11:24:29;5.40;;;3.70;;
1679;SDS011;838;51.794;12.258;2023-02-28T11:27:00;5.50;;;3.83;;
1679;SDS011;838;51.794;12.258;2023-02-28T11:29:27;5.07;;;3.90;;
1679;SDS011;838;51.794;12.258;2023-02-28T11:34:47;6.57;;;4.60;;
1679;SDS011;838;51.794;12.258;2023-02-28T11:37:29;5.73;;;3.87;;
1679;SDS011;838;51.794;12.258;2023-02-28T11:39:56;6.30;;;4.07;;
1679;SDS011;838;51.794;12.258;2023-02-28T11:58:52;5.33;;;4.10;;
1679;SDS011;838;51.794;12.258;2023-02-28T12:01:56;7.10;;;4.23;;
1679;SDS011;838;51.794;12.258;2023-02-28T12:13:32;6.87;;;4.33;;
1679;SDS011;838;51.794;12.258;2023-02-28T12:24:17;9.83;;;4.40;;
1679;SDS011;838;51.794;12.258;2023-02-28T12:27:05;4.80;;;3.90;;
1679;SDS011;838;51.794;12.258;2023-02-28T12:29:47;7.07;;;4.90;;
1679;SDS011;838;51.794;12.258;2023-02-28T12:32:31;5.70;;;4.50;;
1679;SDS011;838;51.794;12.258;2023-02-28T12:35:11;7.03;;;4.50;;
1679;SDS011;838;51.794;12.258;2023-02-28T12:40:22;5.47;;;4.07;;
1679;SDS011;838;51.794;12.258;2023-02-28T12:43:00;5.50;;;4.00;;
1679;SDS011;838;51.794;12.258;2023-02-28T12:48:42;6.03;;;4.70;;
1679;SDS011;838;51.794;12.258;2023-02-28T12:51:11;7.30;;;4.50;;
1679;SDS011;838;51.794;12.258;2023-02-28T12:56:40;5.63;;;4.40;;
1679;SDS011;838;51.794;12.258;2023-02-28T13:04:42;7.47;;;4.47;;
1679;SDS011;838;51.794;12.258;2023-02-28T13:07:38;7.80;;;4.60;;
1679;SDS011;838;51.794;12.258;2023-02-28T13:10:08;9.33;;;4.53;;
1679;SDS011;838;51.794;12.258;2023-02-28T13:12:35;5.83;;;4.23;;
1679;SDS011;838;51.794;12.258;2023-02-28T13:15:23;6.97;;;4.60;;
1679;SDS011;838;51.794;12.258;2023-02-28T13:17:50;7.13;;;4.10;;
1679;SDS011;838;51.794;12.258;2023-02-28T13:20:46;5.17;;;3.90;;
1679;SDS011;838;51.794;12.258;2023-02-28T13:26:06;5.30;;;4.20;;
1679;SDS011;838;51.794;12.258;2023-02-28T13:35:34;7.20;;;4.57;;
1679;SDS011;838;51.794;12.258;2023-02-28T13:39:54;8.20;;;4.40;;
1679;SDS011;838;51.794;12.258;2023-02-28T13:45:32;4.77;;;4.20;;
1679;SDS011;838;51.794;12.258;2023-02-28T13:47:53;6.70;;;4.53;;
1679;SDS011;838;51.794;12.258;2023-02-28T13:50:24;5.40;;;4.03;;
1679;SDS011;838;51.794;12.258;2023-02-28T13:58:51;6.27;;;4.93;;
1679;SDS011;838;51.794;12.258;2023-02-28T14:01:34;7.57;;;4.33;;
1679;SDS011;838;51.794;12.258;2023-02-28T14:06:47;5.73;;;4.30;;
1679;SDS011;838;51.794;12.258;2023-02-28T14:09:31;6.90;;;4.40;;
1679;SDS011;838;51.794;12.258;2023-02-28T14:15:03;7.63;;;3.90;;
1679;SDS011;838;51.794;12.258;2023-02-28T14:17:53;8.70;;;4.00;;
1679;SDS011;838;51.794;12.258;2023-02-28T14:20:21;6.00;;;4.20;;
1679;SDS011;838;51.794;12.258;2023-02-28T14:25:44;5.70;;;4.60;;
1679;SDS011;838;51.794;12.258;2023-02-28T14:30:56;8.57;;;4.90;;
1679;SDS011;838;51.794;12.258;2023-02-28T14:33:25;7.13;;;5.23;;
1679;SDS011;838;51.794;12.258;2023-02-28T14:36:20;6.23;;;4.10;;
1679;SDS011;838;51.794;12.258;2023-02-28T14:38:51;5.57;;;4.07;;
1679;SDS011;838;51.794;12.258;2023-02-28T14:44:00;6.47;;;4.20;;
1679;SDS011;838;51.794;12.258;2023-02-28T14:46:35;5.50;;;4.00;;
1679;SDS011;838;51.794;12.258;2023-02-28T14:49:04;5.37;;;4.27;;
1679;SDS011;838;51.794;12.258;2023-02-28T14:51:32;7.53;;;5.23;;
1679;SDS011;838;51.794;12.258;2023-02-28T14:53:59;6.60;;;4.07;;
1679;SDS011;838;51.794;12.258;2023-02-28T14:56:32;5.13;;;4.00;;
1679;SDS011;838;51.794;12.258;2023-02-28T14:59:01;5.90;;;4.53;;
1679;SDS011;838;51.794;12.258;2023-02-28T15:01:27;5.43;;;3.70;;
1679;SDS011;838;51.794;12.258;2023-02-28T15:04:00;5.90;;;4.13;;
1679;SDS011;838;51.794;12.258;2023-02-28T15:06:27;6.90;;;4.97;;
1679;SDS011;838;51.794;12.258;2023-02-28T15:11:55;6.13;;;4.10;;
1679;SDS011;838;51.794;12.258;2023-02-28T15:14:20;9.80;;;4.87;;
1679;SDS011;838;51.794;12.258;2023-02-28T15:16:49;4.67;;;3.57;;
1679;SDS011;838;51.794;12.258;2023-02-28T15:19:21;5.83;;;4.00;;
1679;SDS011;838;51.794;12.258;2023-02-28T15:21:56;5.23;;;4.20;;
1679;SDS011;838;51.794;12.258;2023-02-28T15:24:43;8.70;;;3.70;;
1679;SDS011;838;51.794;12.258;2023-02-28T15:27:32;5.93;;;4.17;;
1679;SDS011;838;51.794;12.258;2023-02-28T15:29:58;5.57;;;4.17;;
1679;SDS011;838;51.794;12.258;2023-02-28T15:32:31;6.50;;;3.60;;
1679;SDS011;838;51.794;12.258;2023-02-28T15:34:57;5.93;;;3.40;;
1679;SDS011;838;51.794;12.258;2023-02-28T15:40:10;6.73;;;3.87;;
1679;SDS011;838;51.794;12.258;2023-02-28T15:42:56;6.60;;;4.10;;
1679;SDS011;838;51.794;12.258;2023-02-28T15:46:06;7.70;;;4.37;;
1679;SDS011;838;51.794;12.258;2023-02-28T15:48:19;6.07;;;4.37;;
1679;SDS011;838;51.794;12.258;2023-02-28T15:50:49;8.37;;;4.40;;
1679;SDS011;838;51.794;12.258;2023-02-28T15:53:19;5.53;;;3.63;;
1679;SDS011;838;51.794;12.258;2023-02-28T15:55:54;5.90;;;4.03;;
1679;SDS011;838;51.794;12.258;2023-02-28T15:58:26;5.60;;;4.10;;
1679;SDS011;838;51.794;12.258;2023-02-28T16:01:05;7.20;;;4.07;;
1679;SDS011;838;51.794;12.258;2023-02-28T16:03:46;5.57;;;4.00;;
1679;SDS011;838;51.794;12.258;2023-02-28T16:09:08;7.20;;;4.40;;
1679;SDS011;838;51.794;12.258;2023-02-28T16:11:47;6.67;;;4.27;;
1679;SDS011;838;51.794;12.258;2023-02-28T16:14:20;7.80;;;3.90;;
1679;SDS011;838;51.794;12.258;2023-02-28T16:16:54;5.30;;;4.60;;
1679;SDS011;838;51.794;12.258;2023-02-28T16:19:22;7.13;;;4.60;;
1679;SDS011;838;51.794;12.258;2023-02-28T16:21:48;8.60;;;4.43;;
1679;SDS011;838;51.794;12.258;2023-02-28T16:24:14;10.83;;;4.27;;
1679;SDS011;838;51.794;12.258;2023-02-28T16:26:40;7.97;;;4.37;;
1679;SDS011;838;51.794;12.258;2023-02-28T16:29:12;9.47;;;4.93;;
1679;SDS011;838;51.794;12.258;2023-02-28T16:31:44;8.87;;;3.93;;
1679;SDS011;838;51.794;12.258;2023-02-28T16:34:09;6.43;;;5.00;;
1679;SDS011;838;51.794;12.258;2023-02-28T16:36:35;5.73;;;4.33;;
1679;SDS011;838;51.794;12.258;2023-02-28T16:39:01;5.40;;;4.30;;
1679;SDS011;838;51.794;12.258;2023-02-28T16:41:28;5.20;;;4.37;;
1679;SDS011;838;51.794;12.258;2023-02-28T16:43:55;6.63;;;4.53;;
1679;SDS011;838;51.794;12.258;2023-02-28T16:46:30;5.17;;;3.67;;
1679;SDS011;838;51.794;12.258;2023-02-28T16:48:58;6.63;;;3.93;;
1679;SDS011;838;51.794;12.258;2023-02-28T16:51:25;6.43;;;4.00;;
1679;SDS011;838;51.794;12.258;2023-02-28T16:53:50;5.40;;;3.97;;
1679;SDS011;838;51.794;12.258;2023-02-28T16:56:20;5.60;;;4.03;;
1679;SDS011;838;51.794;12.258;2023-02-28T16:58:49;5.90;;;3.73;;
1679;SDS011;838;51.794;12.258;2023-02-28T17:01:17;4.73;;;3.90;;
1679;SDS011;838;51.794;12.258;2023-02-28T17:03:49;6.50;;;4.07;;
1679;SDS011;838;51.794;12.258;2023-02-28T17:06:16;4.43;;;3.90;;
1679;SDS011;838;51.794;12.258;2023-02-28T17:08:48;9.83;;;4.20;;
1679;SDS011;838;51.794;12.258;2023-02-28T17:11:15;5.33;;;3.80;;
1679;SDS011;838;51.794;12.258;2023-02-28T17:13:41;6.23;;;4.20;;
1679;SDS011;838;51.794;12.258;2023-02-28T17:16:29;6.27;;;4.17;;
1679;SDS011;838;51.794;12.258;2023-02-28T17:18:59;5.23;;;3.83;;
1679;SDS011;838;51.794;12.258;2023-02-28T17:21:27;6.63;;;4.40;;
1679;SDS011;838;51.794;12.258;2023-02-28T17:23:53;6.03;;;3.83;;
1679;SDS011;838;51.794;12.258;2023-02-28T17:26:20;4.93;;;4.10;;
1679;SDS011;838;51.794;12.258;2023-02-28T17:28:47;6.47;;;3.70;;
1679;SDS011;838;51.794;12.258;2023-02-28T17:31:14;5.13;;;4.27;;
1679;SDS011;838;51.794;12.258;2023-02-28T17:33:40;9.07;;;5.70;;
1679;SDS011;838;51.794;12.258;2023-02-28T17:36:06;8.37;;;5.40;;
1679;SDS011;838;51.794;12.258;2023-02-28T17:38:39;8.83;;;4.90;;
1679;SDS011;838;51.794;12.258;2023-02-28T17:41:04;7.63;;;4.40;;
1679;SDS011;838;51.794;12.258;2023-02-28T17:43:30;7.00;;;4.63;;
1679;SDS011;838;51.794;12.258;2023-02-28T17:45:56;5.37;;;3.80;;
1679;SDS011;838;51.794;12.258;2023-02-28T17:48:23;7.20;;;4.90;;
1679;SDS011;838;51.794;12.258;2023-02-28T17:50:49;8.40;;;4.33;;
1679;SDS011;838;51.794;12.258;2023-02-28T17:53:14;6.50;;;4.60;;
1679;SDS011;838;51.794;12.258;2023-02-28T17:55:40;6.47;;;4.40;;
1679;SDS011;838;51.794;12.258;2023-02-28T17:58:07;7.93;;;4.53;;
1679;SDS011;838;51.794;12.258;2023-02-28T18:00:36;8.23;;;4.40;;
1679;SDS011;838;51.794;12.258;2023-02-28T18:03:03;8.93;;;5.20;;
1679;SDS011;838;51.794;12.258;2023-02-28T18:05:28;7.30;;;4.70;;
1679;SDS011;838;51.794;12.258;2023-02-28T18:07:55;6.87;;;4.57;;
1679;SDS011;838;51.794;12.258;2023-02-28T18:10:21;7.37;;;5.13;;
1679;SDS011;838;51.794;12.258;2023-02-28T18:12:48;9.20;;;6.40;;
1679;SDS011;838;51.794;12.258;2023-02-28T18:15:15;11.30;;;7.23;;
1679;SDS011;838;51.794;12.258;2023-02-28T18:17:44;18.73;;;8.20;;
1679;SDS011;838;51.794;12.258;2023-02-28T18:20:11;16.37;;;9.17;;
1679;SDS011;838;51.794;12.258;2023-02-28T18:22:37;16.43;;;9.00;;